Terminal Aerodrome Forecast
Issued by NWS Mt. Holly, NJ

Home | Current Version | Previous Version | Text Only | Print | Product List | Glossary On
Versions: 1 2 3 4 5 6 7 8 9 10 11 12 13 14 15 16 17 18 19 20 21
000
FTUS41 KPHI 290920 AAA
TAFPHL
TAF AMD
KPHL 290920Z 2909/3012 19005KT P6SM BKN250
     FM291200 19006KT P6SM SCT250
     FM291600 21010KT P6SM BKN200
     FM300000 20006KT P6SM -SHRA FEW030 OVC060
     FM300900 03003KT 4SM RA BR OVC009
      TEMPO 3009/3012 2SM +RA BR=

USA.gov is the U.S. government's official web portal to all federal, state and local government web resources and services.